createdAt,value
2017-02-20T00:00:54.018Z,8.36
2017-02-20T00:01:53.940Z,8.46
2017-02-20T00:02:53.443Z,8.42
2017-02-20T00:03:53.892Z,8.36
2017-02-20T00:04:53.868Z,8.37
2017-02-20T00:05:54.244Z,8.38
2017-02-20T00:06:54.010Z,8.46
2017-02-20T00:07:54.018Z,8.45
2017-02-20T00:08:54.027Z,8.34
2017-02-20T00:09:53.939Z,8.36
2017-02-20T00:10:53.962Z,8.41
2017-02-20T00:11:53.956Z,8.48
2017-02-20T00:12:53.976Z,8.34
2017-02-20T00:13:53.983Z,8.48
2017-02-20T00:14:54.002Z,8.48
2017-02-20T00:15:54.014Z,8.46
2017-02-20T00:16:54.033Z,8.33
2017-02-20T00:17:54.053Z,8.45
2017-02-20T00:18:54.069Z,8.34
2017-02-20T00:19:54.074Z,8.44
2017-02-20T00:20:54.101Z,8.37
2017-02-20T00:21:54.099Z,8.45
2017-02-20T00:22:54.108Z,8.45
2017-02-20T00:23:54.119Z,8.42
2017-02-20T00:24:54.151Z,8.37
2017-02-20T00:25:54.155Z,8.34
2017-02-20T00:26:54.164Z,8.45
2017-02-20T00:27:54.176Z,8.3
2017-02-20T00:28:54.199Z,8.46
2017-02-20T00:29:54.207Z,8.46
2017-02-20T00:30:54.243Z,8.48
2017-02-20T00:31:54.245Z,8.41
2017-02-20T00:32:54.243Z,8.38
2017-02-20T00:33:54.281Z,8.36
2017-02-20T00:34:54.280Z,8.38
2017-02-20T00:35:54.308Z,8.37
2017-02-20T00:36:54.321Z,8.38
2017-02-20T00:37:54.319Z,8.37
2017-02-20T00:38:54.339Z,8.41
2017-02-20T00:39:54.352Z,8.36
2017-02-20T00:40:54.348Z,8.41
2017-02-20T00:41:54.378Z,8.33
2017-02-20T00:42:54.383Z,8.41
2017-02-20T00:43:54.431Z,8.36
2017-02-20T00:44:54.515Z,8.36
2017-02-20T00:45:54.656Z,8.28
2017-02-20T00:46:54.437Z,8.33
2017-02-20T00:47:54.450Z,8.33
2017-02-20T00:48:54.472Z,8.34
2017-02-20T00:49:54.478Z,8.33
2017-02-20T00:50:54.485Z,8.36
2017-02-20T00:51:54.509Z,8.31
2017-02-20T00:52:54.518Z,8.33
2017-02-20T00:53:54.551Z,8.23
2017-02-20T00:54:54.541Z,8.36
2017-02-20T00:55:54.662Z,8.19
2017-02-20T00:56:54.637Z,8.2
2017-02-20T00:57:54.693Z,8.23
2017-02-20T00:58:54.685Z,8.24
2017-02-20T00:59:54.716Z,8.2
2017-02-20T01:00:54.707Z,8.24
2017-02-20T01:01:54.711Z,8.23
2017-02-20T01:02:54.735Z,8.23
2017-02-20T01:03:54.740Z,8.24
2017-02-20T01:04:54.739Z,8.26
2017-02-20T01:05:54.739Z,8.15
2017-02-20T01:06:54.537Z,8.27
2017-02-20T01:07:54.726Z,8.18
2017-02-20T01:08:54.836Z,8.19
2017-02-20T01:09:54.740Z,8.18
2017-02-20T01:10:54.762Z,8.13
2017-02-20T01:11:54.782Z,8.09
2017-02-20T01:12:54.786Z,8.18
2017-02-20T01:13:54.812Z,8.1
2017-02-20T01:14:54.812Z,8.12
2017-02-20T01:15:54.826Z,8.09
2017-02-20T01:16:54.839Z,8.15
2017-02-20T01:17:54.854Z,8.12
2017-02-20T01:18:54.904Z,8.1
2017-02-20T01:19:54.877Z,8.09
2017-02-20T01:20:54.893Z,8.1
2017-02-20T01:21:54.905Z,8.12
2017-02-20T01:22:54.921Z,8.12
2017-02-20T01:23:54.564Z,8.05
2017-02-20T01:24:54.561Z,8.01
2017-02-20T01:25:54.576Z,8.08
2017-02-20T01:26:54.978Z,8
2017-02-20T01:27:55.099Z,8
2017-02-20T01:28:54.620Z,8.03
2017-02-20T01:29:55.027Z,8.05
2017-02-20T01:30:54.655Z,8.08
2017-02-20T01:31:54.651Z,7.98
2017-02-20T01:32:55.062Z,8.03
2017-02-20T01:33:55.194Z,7.98
2017-02-20T01:34:55.201Z,7.97
2017-02-20T01:35:55.066Z,8.01
2017-02-20T01:36:54.770Z,8
2017-02-20T01:37:55.129Z,7.95
2017-02-20T01:38:54.357Z,8
2017-02-20T01:39:55.156Z,7.95
2017-02-20T01:40:55.172Z,7.91
2017-02-20T01:41:55.178Z,7.93
2017-02-20T01:42:55.192Z,7.88
2017-02-20T01:43:54.412Z,7.93
2017-02-20T01:44:55.219Z,7.93
2017-02-20T01:45:54.843Z,7.94
2017-02-20T01:46:55.237Z,7.85
2017-02-20T01:47:55.296Z,7.88
2017-02-20T01:48:54.888Z,7.91
2017-02-20T01:49:55.326Z,7.93
2017-02-20T01:50:54.915Z,7.93
2017-02-20T01:51:55.303Z,7.83
2017-02-20T01:52:55.333Z,7.77
2017-02-20T01:53:55.326Z,7.8
2017-02-20T01:54:55.354Z,7.77
2017-02-20T01:55:55.355Z,7.8
2017-02-20T01:56:55.376Z,7.82
2017-02-20T01:57:55.378Z,7.79
2017-02-20T01:58:55.390Z,7.77
2017-02-20T01:59:55.409Z,7.77
2017-02-20T02:00:55.433Z,7.82
2017-02-20T02:01:55.431Z,7.83
2017-02-20T02:02:55.468Z,7.75
2017-02-20T02:03:55.468Z,7.8
2017-02-20T02:04:55.481Z,7.73
2017-02-20T02:05:55.513Z,7.73
2017-02-20T02:06:55.502Z,7.76
2017-02-20T02:07:55.526Z,7.73
2017-02-20T02:08:55.136Z,7.77
2017-02-20T02:09:55.565Z,7.72
2017-02-20T02:10:55.555Z,7.73
2017-02-20T02:11:55.624Z,7.76
2017-02-20T02:12:55.593Z,7.69
2017-02-20T02:13:55.608Z,7.72
2017-02-20T02:14:55.605Z,7.75
2017-02-20T02:15:55.232Z,7.72
2017-02-20T02:16:55.646Z,7.72
2017-02-20T02:17:55.769Z,7.73
2017-02-20T02:18:55.705Z,7.7
2017-02-20T02:19:55.668Z,7.69
2017-02-20T02:20:55.784Z,7.72
2017-02-20T02:21:55.742Z,7.75
2017-02-20T02:22:55.730Z,7.76
2017-02-20T02:23:55.742Z,7.76
2017-02-20T02:24:55.737Z,7.69
2017-02-20T02:25:55.752Z,7.57
2017-02-20T02:26:55.764Z,7.7
2017-02-20T02:27:55.780Z,7.72
2017-02-20T02:28:55.798Z,7.76
2017-02-20T02:29:55.809Z,7.69
2017-02-20T02:30:55.817Z,7.75
2017-02-20T02:31:55.849Z,7.72
2017-02-20T02:32:55.445Z,7.69
2017-02-20T02:33:55.575Z,7.66
2017-02-20T02:34:55.952Z,7.66
2017-02-20T02:35:55.903Z,7.73
2017-02-20T02:36:55.497Z,7.72
2017-02-20T02:37:55.513Z,7.76
2017-02-20T02:38:55.921Z,7.69
2017-02-20T02:39:55.937Z,7.75
2017-02-20T02:40:55.550Z,7.76
2017-02-20T02:41:55.576Z,7.73
2017-02-20T02:42:55.990Z,7.67
2017-02-20T02:43:55.992Z,7.75
2017-02-20T02:44:56.000Z,7.77
2017-02-20T02:45:56.017Z,7.77
2017-02-20T02:46:56.040Z,7.7
2017-02-20T02:47:56.040Z,7.67
2017-02-20T02:48:55.657Z,7.73
2017-02-20T02:49:56.073Z,7.7
2017-02-20T02:50:56.083Z,7.73
2017-02-20T02:51:55.696Z,7.67
2017-02-20T02:52:56.112Z,7.75
2017-02-20T02:53:56.115Z,7.69
2017-02-20T02:54:56.171Z,7.73
2017-02-20T02:55:56.345Z,7.76
2017-02-20T02:56:56.161Z,7.73
2017-02-20T02:57:56.182Z,7.75
2017-02-20T02:58:56.201Z,7.69
2017-02-20T02:59:56.213Z,7.67
2017-02-20T03:00:56.239Z,7.7
2017-02-20T03:01:56.324Z,7.72
2017-02-20T03:02:55.841Z,7.69
2017-02-20T03:03:56.259Z,7.67
2017-02-20T03:04:56.371Z,7.73
2017-02-20T03:05:56.281Z,7.72
2017-02-20T03:06:56.288Z,7.7
2017-02-20T03:07:56.295Z,7.83
2017-02-20T03:08:56.321Z,7.7
2017-02-20T03:09:56.330Z,7.7
2017-02-20T03:10:56.338Z,7.77
2017-02-20T03:11:56.356Z,7.72
2017-02-20T03:12:56.369Z,7.72
2017-02-20T03:13:56.485Z,7.75
2017-02-20T03:14:56.406Z,7.73
2017-02-20T03:15:56.403Z,7.76
2017-02-20T03:16:56.414Z,7.83
2017-02-20T03:17:56.432Z,7.77
2017-02-20T03:18:56.446Z,7.8
2017-02-20T03:19:56.483Z,7.82
2017-02-20T03:20:56.472Z,7.76
2017-02-20T03:21:56.481Z,7.75
2017-02-20T03:22:56.505Z,7.79
2017-02-20T03:23:56.742Z,7.82
2017-02-20T03:24:56.531Z,7.79
2017-02-20T03:25:56.570Z,7.77
2017-02-20T03:26:56.748Z,7.8
2017-02-20T03:27:56.685Z,7.77
2017-02-20T03:28:56.592Z,7.82
2017-02-20T03:29:56.588Z,7.79
2017-02-20T03:30:56.686Z,7.8
2017-02-20T03:31:56.724Z,7.85
2017-02-20T03:32:56.880Z,7.77
2017-02-20T03:33:56.798Z,7.77
2017-02-20T03:34:56.805Z,7.79
2017-02-20T03:35:56.819Z,7.8
2017-02-20T03:36:56.847Z,7.82
2017-02-20T03:37:56.842Z,7.77
2017-02-20T03:38:56.835Z,7.73
2017-02-20T03:39:56.866Z,7.83
2017-02-20T03:40:56.842Z,7.75
2017-02-20T03:41:56.861Z,7.79
2017-02-20T03:42:56.868Z,7.79
2017-02-20T03:43:56.875Z,7.83
2017-02-20T03:44:56.895Z,7.79
2017-02-20T03:45:56.904Z,7.79
2017-02-20T03:46:56.936Z,7.83
2017-02-20T03:47:56.933Z,7.8
2017-02-20T03:48:56.951Z,7.8
2017-02-20T03:49:56.936Z,7.77
2017-02-20T03:50:56.955Z,7.8
2017-02-20T03:51:57.033Z,7.82
2017-02-20T03:52:56.964Z,7.82
2017-02-20T03:53:57.011Z,7.8
2017-02-20T03:54:56.987Z,7.83
2017-02-20T03:55:56.992Z,7.79
2017-02-20T03:56:56.953Z,7.77
2017-02-20T03:57:56.963Z,7.83
2017-02-20T03:58:57.074Z,7.77
2017-02-20T03:59:57.083Z,7.87
2017-02-20T04:00:56.989Z,7.85
2017-02-20T04:01:57.008Z,7.8
2017-02-20T04:02:57.022Z,7.88
2017-02-20T04:03:57.027Z,7.91
2017-02-20T04:04:57.151Z,7.87
2017-02-20T04:05:56.764Z,7.85
2017-02-20T04:06:57.076Z,7.85
2017-02-20T04:07:56.692Z,7.95
2017-02-20T04:08:57.212Z,7.82
2017-02-20T04:09:57.352Z,7.85
2017-02-20T04:10:57.128Z,7.85
2017-02-20T04:11:57.133Z,7.87
2017-02-20T04:12:57.156Z,7.82
2017-02-20T04:13:57.173Z,7.87
2017-02-20T04:14:57.178Z,7.93
2017-02-20T04:15:57.189Z,7.85
2017-02-20T04:16:57.310Z,7.87
2017-02-20T04:17:57.303Z,7.8
2017-02-20T04:18:57.234Z,7.8
2017-02-20T04:19:57.255Z,7.88
2017-02-20T04:20:56.904Z,7.87
2017-02-20T04:21:57.280Z,7.8
2017-02-20T04:22:57.391Z,7.91
2017-02-20T04:23:57.403Z,7.91
2017-02-20T04:24:57.420Z,7.91
2017-02-20T04:25:57.321Z,7.87
2017-02-20T04:26:57.330Z,7.95
2017-02-20T04:27:56.951Z,7.91
2017-02-20T04:28:57.364Z,7.85
2017-02-20T04:29:57.368Z,7.85
2017-02-20T04:30:57.405Z,7.83
2017-02-20T04:31:57.479Z,7.87
2017-02-20T04:32:57.416Z,7.91
2017-02-20T04:33:57.536Z,7.95
2017-02-20T04:34:57.438Z,7.87
2017-02-20T04:35:57.457Z,7.83
2017-02-20T04:36:57.477Z,7.8
2017-02-20T04:37:57.479Z,7.87
2017-02-20T04:38:57.498Z,7.95
2017-02-20T04:39:57.501Z,7.93
2017-02-20T04:40:57.524Z,7.97
2017-02-20T04:41:57.534Z,7.87
2017-02-20T04:42:57.556Z,7.87
2017-02-20T04:43:57.564Z,7.95
2017-02-20T04:44:57.565Z,7.95
2017-02-20T04:45:57.580Z,7.87
2017-02-20T04:46:57.606Z,7.93
2017-02-20T04:47:57.614Z,7.88
2017-02-20T04:48:57.627Z,7.95
2017-02-20T04:49:57.244Z,7.93
2017-02-20T04:50:57.680Z,7.9
2017-02-20T04:51:57.659Z,7.9
2017-02-20T04:52:57.670Z,7.95
2017-02-20T04:53:57.704Z,7.98
2017-02-20T04:54:57.741Z,7.94
2017-02-20T04:55:57.712Z,7.93
2017-02-20T04:56:57.726Z,7.93
2017-02-20T04:57:57.742Z,7.95
2017-02-20T04:58:57.750Z,7.95
2017-02-20T04:59:57.769Z,7.93
2017-02-20T05:00:57.784Z,8
2017-02-20T05:01:57.792Z,7.95
2017-02-20T05:02:57.808Z,7.93
2017-02-20T05:03:58.022Z,7.95
2017-02-20T05:04:57.827Z,7.97
2017-02-20T05:05:57.850Z,7.97
2017-02-20T05:06:57.925Z,7.97
2017-02-20T05:07:57.937Z,7.93
2017-02-20T05:08:57.878Z,8.03
2017-02-20T05:09:57.896Z,7.93
2017-02-20T05:10:57.914Z,8.03
2017-02-20T05:11:57.918Z,8.05
2017-02-20T05:12:57.934Z,7.97
2017-02-20T05:13:57.949Z,8.05
2017-02-20T05:14:57.961Z,8.05
2017-02-20T05:15:57.981Z,8.08
2017-02-20T05:16:57.986Z,7.94
2017-02-20T05:17:58.003Z,8
2017-02-20T05:18:58.018Z,7.98
2017-02-20T05:19:58.028Z,7.98
2017-02-20T05:20:58.043Z,8
2017-02-20T05:21:58.072Z,7.91
2017-02-20T05:22:57.679Z,7.98
2017-02-20T05:23:58.088Z,8
2017-02-20T05:24:58.108Z,8.01
2017-02-20T05:25:58.114Z,7.98
2017-02-20T05:26:58.130Z,8.01
2017-02-20T05:27:58.132Z,7.85
2017-02-20T05:28:58.151Z,8
2017-02-20T05:29:58.163Z,8.06
2017-02-20T05:30:58.181Z,8
2017-02-20T05:31:58.184Z,7.91
2017-02-20T05:32:58.211Z,7.97
2017-02-20T05:33:58.213Z,7.98
2017-02-20T05:34:58.225Z,7.97
2017-02-20T05:35:58.237Z,8.08
2017-02-20T05:36:58.257Z,8.05
2017-02-20T05:37:58.276Z,8.03
2017-02-20T05:38:58.278Z,8.01
2017-02-20T05:39:58.293Z,8.01
2017-02-20T05:40:58.301Z,8.03
2017-02-20T05:41:58.452Z,7.88
2017-02-20T05:42:58.452Z,7.98
2017-02-20T05:43:58.461Z,7.9
2017-02-20T05:44:58.463Z,7.97
2017-02-20T05:45:58.475Z,7.97
2017-02-20T05:46:58.383Z,7.97
2017-02-20T05:47:58.394Z,8
2017-02-20T05:48:58.422Z,7.94
2017-02-20T05:49:58.528Z,8.01
2017-02-20T05:50:58.552Z,8.05
2017-02-20T05:51:58.457Z,7.9
2017-02-20T05:52:58.461Z,8.05
2017-02-20T05:53:58.484Z,8
2017-02-20T05:54:58.503Z,8
2017-02-20T05:55:58.608Z,7.98
2017-02-20T05:56:58.515Z,8
2017-02-20T05:57:58.526Z,8.01
2017-02-20T05:58:58.541Z,8.01
2017-02-20T05:59:58.555Z,8.03
2017-02-20T06:00:58.570Z,8.01
2017-02-20T06:01:58.585Z,7.9
2017-02-20T06:02:58.594Z,7.97
2017-02-20T06:03:58.715Z,8.05
2017-02-20T06:04:58.720Z,7.93
2017-02-20T06:05:58.728Z,7.94
2017-02-20T06:06:58.249Z,8.01
2017-02-20T06:07:58.698Z,7.97
2017-02-20T06:08:58.684Z,7.95
2017-02-20T06:09:58.685Z,8
2017-02-20T06:10:58.698Z,7.91
2017-02-20T06:11:58.801Z,8.01
2017-02-20T06:12:58.763Z,7.93
2017-02-20T06:13:58.767Z,7.93
2017-02-20T06:14:58.751Z,7.95
2017-02-20T06:15:58.765Z,8
2017-02-20T06:16:58.776Z,8.01
2017-02-20T06:17:58.805Z,8
2017-02-20T06:18:58.819Z,7.97
2017-02-20T06:19:58.821Z,7.91
2017-02-20T06:20:58.831Z,7.95
2017-02-20T06:21:58.839Z,7.93
2017-02-20T06:22:58.852Z,7.94
2017-02-20T06:23:58.881Z,8
2017-02-20T06:24:58.879Z,8
2017-02-20T06:25:58.897Z,7.9
2017-02-20T06:26:58.906Z,7.97
2017-02-20T06:27:58.928Z,8.01
2017-02-20T06:28:58.936Z,7.95
2017-02-20T06:29:58.945Z,8.05
2017-02-20T06:30:58.968Z,7.93
2017-02-20T06:31:58.973Z,8.01
2017-02-20T06:32:58.990Z,8.03
2017-02-20T06:33:59.014Z,8.05
2017-02-20T06:34:59.012Z,8.03
2017-02-20T06:35:59.028Z,8.05
2017-02-20T06:36:59.046Z,8.03
2017-02-20T06:37:58.659Z,7.97
2017-02-20T06:38:58.668Z,7.97
2017-02-20T06:39:58.690Z,7.95
2017-02-20T06:40:58.708Z,7.94
2017-02-20T06:41:59.104Z,7.98
2017-02-20T06:42:59.118Z,8
2017-02-20T06:43:59.129Z,8
2017-02-20T06:44:59.158Z,8.03
2017-02-20T06:45:58.771Z,8.05
2017-02-20T06:46:58.777Z,7.95
2017-02-20T06:47:58.809Z,8
2017-02-20T06:48:59.209Z,8.01
2017-02-20T06:49:58.826Z,8.01
2017-02-20T06:50:59.226Z,8.01
2017-02-20T06:51:59.248Z,8.03
2017-02-20T06:52:59.253Z,8.08
2017-02-20T06:53:59.270Z,8.05
2017-02-20T06:54:58.886Z,8.03
2017-02-20T06:55:59.296Z,8.06
2017-02-20T06:56:59.313Z,8.08
2017-02-20T06:57:59.330Z,8.05
2017-02-20T06:58:59.489Z,8.05
2017-02-20T06:59:59.347Z,8.12
2017-02-20T07:00:58.963Z,8.03
2017-02-20T07:01:59.478Z,8.06
2017-02-20T07:02:59.530Z,8.1
2017-02-20T07:03:59.504Z,8.08
2017-02-20T07:04:59.427Z,8.06
2017-02-20T07:05:59.614Z,8.12
2017-02-20T07:06:59.444Z,8.12
2017-02-20T07:07:59.464Z,8.03
2017-02-20T07:08:59.615Z,8.08
2017-02-20T07:09:59.658Z,8.1
2017-02-20T07:10:59.498Z,8.06
2017-02-20T07:11:59.511Z,8.09
2017-02-20T07:12:59.519Z,8.08
2017-02-20T07:13:59.535Z,8.09
2017-02-20T07:14:59.657Z,8.01
2017-02-20T07:15:59.562Z,8.15
2017-02-20T07:16:59.572Z,8.05
2017-02-20T07:17:59.588Z,8.13
2017-02-20T07:18:59.606Z,8.15
2017-02-20T07:19:59.719Z,8.06
2017-02-20T07:20:59.620Z,8.13
2017-02-20T07:21:59.829Z,8.05
2017-02-20T07:22:59.648Z,8.09
2017-02-20T07:23:59.844Z,8.09
2017-02-20T07:24:59.711Z,8.15
2017-02-20T07:25:59.724Z,8.2
2017-02-20T07:26:59.697Z,8.15
2017-02-20T07:27:58.938Z,8.12
2017-02-20T07:28:59.331Z,8.1
2017-02-20T07:29:59.738Z,8.16
2017-02-20T07:30:59.768Z,8.19
2017-02-20T07:31:59.775Z,8.12
2017-02-20T07:32:59.796Z,8.13
2017-02-20T07:33:59.803Z,8.15
2017-02-20T07:34:59.042Z,8.2
2017-02-20T07:35:59.948Z,8.24
2017-02-20T07:36:59.862Z,8.26
2017-02-20T07:37:59.850Z,8.2
2017-02-20T07:38:59.869Z,8.28
2017-02-20T07:39:59.976Z,8.2
2017-02-20T07:40:59.895Z,8.24
2017-02-20T07:41:59.906Z,8.24
2017-02-20T07:42:59.918Z,8.33
2017-02-20T07:43:59.940Z,8.34
2017-02-20T07:44:59.939Z,8.36
2017-02-20T07:45:59.965Z,8.34
2017-02-20T07:46:59.974Z,8.33
2017-02-20T07:47:59.987Z,8.37
2017-02-20T07:49:00.002Z,8.38
2017-02-20T07:50:00.011Z,8.36
2017-02-20T07:51:00.030Z,8.44
2017-02-20T07:52:00.034Z,8.45
2017-02-20T07:53:00.048Z,8.46
2017-02-20T07:54:00.065Z,8.41
2017-02-20T07:55:00.085Z,8.48
2017-02-20T07:56:00.159Z,8.49
2017-02-20T07:57:00.151Z,8.56
2017-02-20T07:58:00.213Z,8.61
2017-02-20T07:59:00.343Z,8.61
2017-02-20T08:00:00.271Z,8.52
2017-02-20T08:01:00.151Z,8.66
2017-02-20T08:02:00.219Z,8.71
2017-02-20T08:03:00.183Z,8.71
2017-02-20T08:04:00.202Z,8.67
2017-02-20T08:05:00.308Z,8.71
2017-02-20T08:06:00.289Z,8.7
2017-02-20T08:06:59.888Z,8.78
2017-02-20T08:08:00.286Z,8.74
2017-02-20T08:09:00.261Z,8.76
2017-02-20T08:10:00.299Z,8.79
2017-02-20T08:11:00.300Z,8.82
2017-02-20T08:12:00.307Z,8.78
2017-02-20T08:13:00.322Z,8.89
2017-02-20T08:13:59.965Z,8.89
2017-02-20T08:15:00.341Z,8.89
2017-02-20T08:16:00.355Z,8.89
2017-02-20T08:17:00.382Z,8.84
2017-02-20T08:18:00.399Z,8.95
2017-02-20T08:19:00.397Z,9
2017-02-20T08:20:00.411Z,8.97
2017-02-20T08:21:00.436Z,9
2017-02-20T08:22:00.443Z,8.97
2017-02-20T08:22:59.773Z,9.1
2017-02-20T08:24:00.476Z,9.08
2017-02-20T08:25:00.482Z,9.04
2017-02-20T08:26:00.509Z,9.08
2017-02-20T08:27:00.144Z,9.25
2017-02-20T08:28:00.149Z,9.13
2017-02-20T08:29:00.553Z,9.22
2017-02-20T08:30:00.165Z,9.14
2017-02-20T08:31:00.562Z,9.23
2017-02-20T08:32:00.593Z,9.31
2017-02-20T08:33:00.597Z,9.23
2017-02-20T08:34:00.222Z,9.41
2017-02-20T08:35:00.638Z,9.32
2017-02-20T08:36:00.685Z,9.34
2017-02-20T08:37:00.269Z,9.43
2017-02-20T08:38:00.786Z,9.41
2017-02-20T08:39:00.679Z,9.47
2017-02-20T08:40:00.687Z,9.47
2017-02-20T08:41:00.715Z,9.44
2017-02-20T08:42:00.729Z,9.47
2017-02-20T08:43:00.733Z,9.51
2017-02-20T08:44:00.752Z,9.54
2017-02-20T08:45:00.757Z,9.51
2017-02-20T08:46:00.785Z,9.64
2017-02-20T08:47:00.793Z,9.56
2017-02-20T08:48:00.813Z,9.65
2017-02-20T08:49:00.820Z,9.65
2017-02-20T08:50:00.452Z,9.66
2017-02-20T08:51:00.846Z,9.72
2017-02-20T08:52:00.864Z,9.68
2017-02-20T08:53:00.877Z,9.66
2017-02-20T08:54:00.923Z,9.77
2017-02-20T08:55:00.898Z,9.77
2017-02-20T08:56:00.532Z,9.65
2017-02-20T08:57:00.938Z,9.8
2017-02-20T08:58:00.945Z,9.66
2017-02-20T08:59:00.995Z,9.72
2017-02-20T09:00:00.977Z,9.74
2017-02-20T09:01:00.985Z,9.72
2017-02-20T09:02:01.008Z,9.73
2017-02-20T09:03:00.624Z,9.73
2017-02-20T09:04:00.242Z,9.79
2017-02-20T09:05:01.077Z,9.76
2017-02-20T09:06:01.070Z,9.84
2017-02-20T09:07:00.691Z,9.77
2017-02-20T09:08:01.097Z,9.8
2017-02-20T09:09:01.100Z,9.76
2017-02-20T09:10:00.740Z,9.79
2017-02-20T09:11:01.146Z,9.79
2017-02-20T09:12:01.152Z,9.74
2017-02-20T09:13:00.761Z,9.76
2017-02-20T09:14:01.168Z,9.79
2017-02-20T09:15:00.812Z,9.8
2017-02-20T09:16:01.207Z,9.8
2017-02-20T09:17:01.224Z,9.77
2017-02-20T09:18:01.234Z,9.76
2017-02-20T09:19:01.253Z,9.8
2017-02-20T09:20:01.384Z,9.84
2017-02-20T09:21:01.002Z,9.84
2017-02-20T09:22:01.004Z,9.82
2017-02-20T09:23:01.154Z,9.83
2017-02-20T09:24:01.008Z,9.76
2017-02-20T09:25:01.516Z,9.82
2017-02-20T09:26:01.094Z,9.74
2017-02-20T09:27:01.119Z,9.79
2017-02-20T09:28:01.566Z,9.8
2017-02-20T09:29:01.131Z,9.82
2017-02-20T09:30:01.013Z,9.76
2017-02-20T09:31:01.021Z,9.79
2017-02-20T09:32:01.447Z,9.84
2017-02-20T09:33:01.050Z,9.86
2017-02-20T09:34:01.478Z,9.87
2017-02-20T09:35:01.076Z,9.84
2017-02-20T09:36:01.220Z,9.8
2017-02-20T09:37:01.105Z,9.82
2017-02-20T09:38:01.525Z,9.94
2017-02-20T09:39:01.141Z,9.86
2017-02-20T09:40:01.168Z,9.92
2017-02-20T09:41:01.673Z,9.91
2017-02-20T09:42:01.583Z,9.98
2017-02-20T09:43:01.590Z,9.98
2017-02-20T09:44:01.211Z,9.97
2017-02-20T09:45:01.640Z,10.01
2017-02-20T09:46:01.650Z,10.12
2017-02-20T09:47:01.662Z,10.07
2017-02-20T09:48:01.778Z,10.16
2017-02-20T09:49:01.292Z,10.15
2017-02-20T09:50:01.304Z,10.15
2017-02-20T09:51:01.706Z,10.16
2017-02-20T09:52:01.724Z,10.19
2017-02-20T09:53:02.939Z,10.25
2017-02-20T09:54:02.715Z,10.25
2017-02-20T09:55:01.771Z,10.33
2017-02-20T09:56:01.790Z,10.34
2017-02-20T09:57:01.894Z,10.41
2017-02-20T09:58:01.833Z,10.38
2017-02-20T09:59:01.831Z,10.44
2017-02-20T10:00:01.842Z,10.35
2017-02-20T10:01:01.582Z,10.44
2017-02-20T10:02:01.984Z,10.51
2017-02-20T10:03:01.991Z,10.56
2017-02-20T10:04:02.035Z,10.59
2017-02-20T10:05:02.015Z,10.56
2017-02-20T10:06:02.015Z,10.67
2017-02-20T10:07:01.558Z,10.67
2017-02-20T10:08:02.046Z,10.64
2017-02-20T10:09:02.078Z,10.74
2017-02-20T10:10:02.066Z,10.69
2017-02-20T10:11:01.680Z,10.74
2017-02-20T10:12:02.132Z,10.78
2017-02-20T10:13:02.152Z,10.78
2017-02-20T10:14:01.746Z,10.81
2017-02-20T10:15:02.158Z,10.69
2017-02-20T10:16:02.172Z,10.74
2017-02-20T10:17:02.201Z,10.76
2017-02-20T10:18:02.297Z,10.74
2017-02-20T10:19:02.287Z,10.84
2017-02-20T10:20:01.898Z,10.76
2017-02-20T10:21:02.288Z,10.78
2017-02-20T10:22:02.302Z,10.79
2017-02-20T10:23:02.053Z,10.76
2017-02-20T10:24:02.311Z,10.81
2017-02-20T10:25:02.320Z,10.76
2017-02-20T10:26:02.351Z,10.81
2017-02-20T10:27:02.343Z,10.82
2017-02-20T10:28:02.553Z,10.75
2017-02-20T10:29:02.475Z,10.79
2017-02-20T10:30:02.486Z,10.81
2017-02-20T10:31:02.510Z,10.76
2017-02-20T10:32:02.407Z,10.9
2017-02-20T10:33:02.475Z,10.86
2017-02-20T10:34:02.465Z,10.87
2017-02-20T10:35:02.484Z,10.92
2017-02-20T10:36:02.487Z,10.84
2017-02-20T10:37:02.472Z,10.86
2017-02-20T10:38:02.518Z,10.84
2017-02-20T10:39:02.134Z,10.94
2017-02-20T10:40:02.533Z,10.9
2017-02-20T10:41:02.526Z,10.89
2017-02-20T10:42:02.537Z,10.92
2017-02-20T10:43:02.603Z,10.92
2017-02-20T10:44:02.525Z,10.89
2017-02-20T10:45:02.532Z,10.93
2017-02-20T10:46:02.547Z,10.96
2017-02-20T10:47:02.345Z,10.97
2017-02-20T10:48:02.570Z,10.93
2017-02-20T10:49:02.698Z,10.96
2017-02-20T10:50:02.597Z,10.96
2017-02-20T10:51:02.632Z,10.86
2017-02-20T10:52:02.649Z,10.96
2017-02-20T10:53:02.647Z,10.97
2017-02-20T10:54:02.673Z,10.97
2017-02-20T10:55:02.290Z,10.93
2017-02-20T10:56:02.728Z,10.97
2017-02-20T10:57:02.720Z,10.94
2017-02-20T10:58:02.736Z,10.89
2017-02-20T10:59:02.469Z,10.93
2017-02-20T11:00:02.761Z,11.02
2017-02-20T11:01:02.775Z,10.94
2017-02-20T11:02:02.796Z,10.99
2017-02-20T11:03:02.813Z,11.02
2017-02-20T11:04:02.831Z,10.93
2017-02-20T11:05:02.838Z,11.04
2017-02-20T11:06:02.482Z,11.07
2017-02-20T11:07:02.876Z,10.99
2017-02-20T11:08:03.002Z,11.02
2017-02-20T11:09:02.900Z,11.05
2017-02-20T11:10:02.922Z,11.1
2017-02-20T11:11:02.988Z,11.11
2017-02-20T11:12:02.952Z,11.08
2017-02-20T11:13:02.965Z,11.18
2017-02-20T11:14:02.581Z,11.15
2017-02-20T11:15:02.996Z,11.14
2017-02-20T11:16:03.013Z,11.14
2017-02-20T11:17:03.027Z,11.15
2017-02-20T11:18:03.297Z,11.15
2017-02-20T11:19:03.283Z,11.17
2017-02-20T11:20:03.077Z,11.19
2017-02-20T11:21:03.185Z,11.23
2017-02-20T11:22:03.119Z,11.18
2017-02-20T11:23:02.743Z,11.22
2017-02-20T11:24:03.161Z,11.22
2017-02-20T11:25:03.160Z,11.27
2017-02-20T11:26:03.179Z,11.25
2017-02-20T11:27:03.179Z,11.29
2017-02-20T11:28:03.194Z,11.32
2017-02-20T11:29:03.222Z,11.29
2017-02-20T11:30:03.235Z,11.4
2017-02-20T11:31:03.259Z,11.36
2017-02-20T11:32:03.271Z,11.36
2017-02-20T11:33:03.271Z,11.37
2017-02-20T11:34:03.295Z,11.36
2017-02-20T11:35:03.340Z,11.4
2017-02-20T11:36:03.337Z,11.45
2017-02-20T11:37:03.428Z,11.47
2017-02-20T11:38:03.366Z,11.5
2017-02-20T11:39:03.385Z,11.48
2017-02-20T11:40:02.998Z,11.48
2017-02-20T11:41:03.396Z,11.59
2017-02-20T11:42:03.418Z,11.52
2017-02-20T11:43:03.038Z,11.47
2017-02-20T11:44:03.472Z,11.45
2017-02-20T11:45:03.468Z,11.45
2017-02-20T11:46:03.493Z,11.4
2017-02-20T11:47:03.496Z,11.52
2017-02-20T11:48:03.522Z,11.51
2017-02-20T11:49:03.528Z,11.5
2017-02-20T11:50:03.564Z,11.47
2017-02-20T11:51:03.575Z,11.51
2017-02-20T11:52:03.579Z,11.52
2017-02-20T11:53:03.623Z,11.52
2017-02-20T11:54:03.344Z,11.52
2017-02-20T11:55:03.771Z,11.57
2017-02-20T11:56:03.842Z,11.54
2017-02-20T11:57:03.661Z,11.57
2017-02-20T11:58:03.674Z,11.59
2017-02-20T11:59:03.703Z,11.63
2017-02-20T12:00:03.702Z,11.66
2017-02-20T12:01:03.736Z,11.63
2017-02-20T12:02:03.744Z,11.66
2017-02-20T12:03:03.364Z,11.73
2017-02-20T12:04:03.411Z,11.65
2017-02-20T12:05:03.404Z,11.73
2017-02-20T12:06:03.531Z,11.63
2017-02-20T12:07:03.608Z,11.63
2017-02-20T12:08:03.462Z,11.69
2017-02-20T12:09:03.858Z,11.73
2017-02-20T12:10:03.491Z,11.69
2017-02-20T12:11:03.896Z,11.68
2017-02-20T12:12:03.896Z,11.63
2017-02-20T12:13:03.928Z,11.65
2017-02-20T12:14:03.934Z,11.73
2017-02-20T12:15:03.950Z,11.7
2017-02-20T12:16:03.968Z,11.78
2017-02-20T12:17:03.983Z,11.69
2017-02-20T12:18:03.622Z,11.72
2017-02-20T12:19:04.021Z,11.63
2017-02-20T12:20:04.050Z,11.63
2017-02-20T12:21:04.052Z,11.73
2017-02-20T12:22:04.059Z,11.68
2017-02-20T12:23:04.085Z,11.73
2017-02-20T12:24:04.109Z,11.72
2017-02-20T12:25:04.133Z,11.72
2017-02-20T12:26:04.136Z,11.72
2017-02-20T12:27:04.142Z,11.72
2017-02-20T12:28:04.155Z,11.75
2017-02-20T12:29:04.177Z,11.77
2017-02-20T12:30:04.230Z,11.78
2017-02-20T12:31:04.226Z,11.8
2017-02-20T12:32:04.234Z,11.78
2017-02-20T12:33:04.552Z,11.73
2017-02-20T12:34:04.346Z,11.77
2017-02-20T12:35:04.274Z,11.8
2017-02-20T12:36:04.289Z,11.75
2017-02-20T12:37:04.304Z,11.78
2017-02-20T12:38:04.363Z,11.73
2017-02-20T12:39:04.447Z,11.8
2017-02-20T12:40:04.395Z,11.72
2017-02-20T12:41:04.414Z,11.73
2017-02-20T12:42:04.409Z,11.8
2017-02-20T12:43:04.413Z,11.78
2017-02-20T12:44:04.425Z,11.73
2017-02-20T12:45:04.459Z,11.72
2017-02-20T12:46:04.465Z,11.77
2017-02-20T12:47:04.481Z,11.78
2017-02-20T12:48:04.488Z,11.8
2017-02-20T12:49:04.503Z,11.77
2017-02-20T12:50:04.539Z,11.81
2017-02-20T12:51:04.535Z,11.84
2017-02-20T12:52:04.563Z,11.8
2017-02-20T12:53:04.608Z,11.8
2017-02-20T12:54:04.581Z,11.84
2017-02-20T12:55:04.604Z,11.75
2017-02-20T12:56:04.700Z,11.75
2017-02-20T12:57:04.717Z,11.78
2017-02-20T12:58:04.776Z,11.83
2017-02-20T12:59:04.687Z,11.78
2017-02-20T13:00:04.708Z,11.72
2017-02-20T13:01:04.702Z,11.84
2017-02-20T13:02:04.729Z,11.77
2017-02-20T13:03:04.738Z,11.75
2017-02-20T13:04:04.754Z,11.77
2017-02-20T13:05:04.779Z,11.75
2017-02-20T13:06:04.784Z,11.83
2017-02-20T13:07:04.904Z,11.72
2017-02-20T13:08:04.818Z,11.73
2017-02-20T13:09:04.843Z,11.78
2017-02-20T13:10:04.856Z,11.78
2017-02-20T13:11:04.866Z,11.77
2017-02-20T13:12:04.881Z,11.75
2017-02-20T13:13:04.500Z,11.78
2017-02-20T13:14:04.923Z,11.75
2017-02-20T13:15:04.929Z,11.8
2017-02-20T13:16:04.959Z,11.75
2017-02-20T13:17:04.981Z,11.77